Terminal Aerodrome Forecast
Issued by NWS

Home | Current Version | Previous Version | Text Only | Print | Product List | Glossary On
Versions: 1 2 3 4 5 6 7 8 9 10 11 12 13
000
FTUS45 KABQ 012300
TAFSAF
TAF
KSAF 012326Z 0200/0224 28011G21KT P6SM SCT100
     FM020200 34012KT P6SM VCSH BKN080
     FM020600 35008KT P6SM SKC
     FM021500 35016KT P6SM SKC=

USA.gov is the U.S. government's official web portal to all federal, state and local government web resources and services.